createdAt,value
2023-04-23T00:01:08.803Z,100171.97
2023-04-23T00:04:13.865Z,100168.81
2023-04-23T00:07:20.555Z,100164.75
2023-04-23T00:10:24.104Z,100161.28
2023-04-23T00:13:27.578Z,100163.09
2023-04-23T00:16:31.088Z,100165.13
2023-04-23T00:19:34.330Z,100162.75
2023-04-23T00:22:37.820Z,100166.06
2023-04-23T00:25:40.865Z,100165.22
2023-04-23T00:28:44.124Z,100160.16
2023-04-23T00:31:47.746Z,100161.56
2023-04-23T00:34:50.976Z,100153.03
2023-04-23T00:37:53.926Z,100157.25
2023-04-23T00:40:57.498Z,100145.59
2023-04-23T00:44:00.764Z,100149.03
2023-04-23T00:47:04.125Z,100151.69
2023-04-23T00:50:08.288Z,100157.88
2023-04-23T00:53:12.616Z,100150.47
2023-04-23T00:56:18.001Z,100152.44
2023-04-23T00:59:22.018Z,100148.44
2023-04-23T01:02:28.127Z,100148.50
2023-04-23T01:05:31.399Z,100148.38
2023-04-23T01:08:36.456Z,100142.53
2023-04-23T01:11:42.050Z,100148.72
2023-04-23T01:14:46.174Z,100142.53
2023-04-23T01:17:49.485Z,100136.75
2023-04-23T01:20:52.708Z,100141.47
2023-04-23T01:23:56.185Z,100145.69
2023-04-23T01:26:59.144Z,100150.41
2023-04-23T01:30:04.927Z,100144.47
2023-04-23T01:33:09.200Z,100146.81
2023-04-23T01:36:12.711Z,100145.41
2023-04-23T01:39:16.101Z,100141.53
2023-04-23T01:42:19.649Z,100133.06
2023-04-23T01:45:23.091Z,100129.59
2023-04-23T01:48:26.571Z,100126.59
2023-04-23T01:51:30.600Z,100123.06
2023-04-23T01:54:33.849Z,100116.97
2023-04-23T01:57:37.280Z,100122.28
2023-04-23T02:00:40.635Z,100122.41
2023-04-23T02:03:45.228Z,100123.66
2023-04-23T02:06:50.520Z,100123.53
2023-04-23T02:09:53.769Z,100122.81
2023-04-23T02:12:58.436Z,100112.31
2023-04-23T02:16:01.828Z,100117.72
2023-04-23T02:19:05.415Z,100117.72
2023-04-23T02:22:09.388Z,100111.41
2023-04-23T02:25:15.828Z,100111.00
2023-04-23T02:28:18.978Z,100104.78
2023-04-23T02:31:22.909Z,100107.78
2023-04-23T02:34:26.293Z,100114.16
2023-04-23T02:37:29.480Z,100111.72
2023-04-23T02:40:32.517Z,100107.06
2023-04-23T02:43:35.901Z,100102.38
2023-04-23T02:46:38.831Z,100106.56
2023-04-23T02:49:42.108Z,100102.00
2023-04-23T02:52:45.456Z,100101.69
2023-04-23T02:55:48.722Z,100095.84
2023-04-23T02:58:51.881Z,100097.94
2023-04-23T03:01:55.456Z,100097.53
2023-04-23T03:04:58.777Z,100091.56
2023-04-23T03:08:01.760Z,100095.50
2023-04-23T03:11:05.272Z,100089.44
2023-04-23T03:14:09.462Z,100094.84
2023-04-23T03:17:12.679Z,100087.88
2023-04-23T03:20:15.695Z,100092.13
2023-04-23T03:23:19.344Z,100085.63
2023-04-23T03:26:23.876Z,100091.41
2023-04-23T03:29:30.811Z,100094.16
2023-04-23T03:32:34.485Z,100103.56
2023-04-23T03:35:37.742Z,100101.28
2023-04-23T03:38:45.212Z,100104.19
2023-04-23T03:41:49.673Z,100106.53
2023-04-23T03:44:56.161Z,100112.09
2023-04-23T03:47:59.057Z,100111.44
2023-04-23T03:51:03.412Z,100114.25
2023-04-23T03:54:19.664Z,100108.84
2023-04-23T03:57:41.542Z,100114.66
2023-04-23T04:00:56.148Z,100112.34
2023-04-23T04:03:59.672Z,100109.00
2023-04-23T04:07:03.187Z,100106.31
2023-04-23T04:10:07.035Z,100101.19
2023-04-23T04:13:10.069Z,100110.38
2023-04-23T04:16:13.514Z,100112.19
2023-04-23T04:19:16.764Z,100118.66
2023-04-23T04:22:20.259Z,100113.25
2023-04-23T04:25:24.326Z,100114.97
2023-04-23T04:28:27.767Z,100122.78
2023-04-23T04:31:31.394Z,100122.06
2023-04-23T04:34:36.312Z,100125.09
2023-04-23T04:37:39.281Z,100131.56
2023-04-23T04:40:43.970Z,100129.59
2023-04-23T04:43:48.488Z,100135.50
2023-04-23T04:46:52.925Z,100129.72
2023-04-23T04:49:57.833Z,100132.47
2023-04-23T04:53:01.030Z,100129.72
2023-04-23T04:56:04.043Z,100136.91
2023-04-23T04:59:07.192Z,100136.81
2023-04-23T05:02:10.526Z,100135.19
2023-04-23T05:05:13.979Z,100136.22
2023-04-23T05:08:17.602Z,100130.00
2023-04-23T05:11:21.213Z,100134.94
2023-04-23T05:14:26.802Z,100136.88
2023-04-23T05:17:29.858Z,100130.28
2023-04-23T05:20:33.033Z,100134.47
2023-04-23T05:23:36.630Z,100143.53
2023-04-23T05:26:39.631Z,100136.38
2023-04-23T05:29:42.584Z,100146.44
2023-04-23T05:32:45.809Z,100131.75
2023-04-23T05:35:48.873Z,100139.88
2023-04-23T05:38:52.783Z,100141.78
2023-04-23T05:41:56.413Z,100141.16
2023-04-23T05:44:59.420Z,100150.53
2023-04-23T05:48:02.511Z,100145.81
2023-04-23T05:51:05.592Z,100151.47
2023-04-23T05:54:08.542Z,100154.97
2023-04-23T05:57:12.360Z,100151.34
2023-04-23T06:00:17.143Z,100143.75
2023-04-23T06:03:20.587Z,100150.84
2023-04-23T06:06:23.935Z,100155.34
2023-04-23T06:09:26.964Z,100156.63
2023-04-23T06:12:30.137Z,100159.34
2023-04-23T06:15:33.309Z,100152.25
2023-04-23T06:18:37.849Z,100146.91
2023-04-23T06:21:41.266Z,100159.59
2023-04-23T06:24:44.435Z,100157.25
2023-04-23T06:27:47.635Z,100155.44
2023-04-23T06:30:56.190Z,100158.41
2023-04-23T06:33:59.643Z,100153.84
2023-04-23T06:37:02.593Z,100157.28
2023-04-23T06:40:07.209Z,100146.03
2023-04-23T06:43:11.292Z,100157.34
2023-04-23T06:46:37.295Z,100154.34
2023-04-23T06:49:41.324Z,100152.78
2023-04-23T06:52:45.372Z,100151.81
2023-04-23T06:55:50.020Z,100145.06
2023-04-23T06:58:53.172Z,100148.50
2023-04-23T07:01:57.981Z,100147.03
2023-04-23T07:05:01.382Z,100149.09
2023-04-23T07:08:04.773Z,100149.16
2023-04-23T07:11:08.197Z,100145.59
2023-04-23T07:14:11.299Z,100149.97
2023-04-23T07:17:14.190Z,100147.13
2023-04-23T07:20:17.312Z,100146.75
2023-04-23T07:23:20.589Z,100137.50
2023-04-23T07:26:25.603Z,100140.00
2023-04-23T07:29:28.751Z,100139.34
2023-04-23T07:32:32.150Z,100138.81
2023-04-23T07:35:35.675Z,100131.19
2023-04-23T07:38:39.087Z,100136.59
2023-04-23T07:41:42.911Z,100133.13
2023-04-23T07:44:46.462Z,100123.72
2023-04-23T07:47:50.847Z,100124.28
2023-04-23T07:50:54.298Z,100137.03
2023-04-23T07:53:58.414Z,100134.16
2023-04-23T07:57:01.487Z,100125.28
2023-04-23T08:00:09.432Z,100131.28
2023-04-23T08:03:15.374Z,100126.00
2023-04-23T08:06:18.832Z,100122.56
2023-04-23T08:09:21.695Z,100125.53
2023-04-23T08:12:24.541Z,100118.69
2023-04-23T08:18:57.837Z,100121.97
2023-04-23T08:22:07.891Z,100110.25
2023-04-23T08:25:12.840Z,100117.09
2023-04-23T08:28:16.439Z,100114.50
2023-04-23T08:31:26.428Z,100102.69
2023-04-23T08:34:31.819Z,100110.50
2023-04-23T08:37:35.731Z,100111.41
2023-04-23T08:40:41.516Z,100112.47
2023-04-23T08:43:55.877Z,100104.66
2023-04-23T08:47:04.944Z,100104.75
2023-04-23T08:50:10.400Z,100100.81
2023-04-23T08:53:19.908Z,100105.38
2023-04-23T08:56:24.352Z,100097.03
2023-04-23T08:59:30.813Z,100085.44
2023-04-23T09:02:38.486Z,100087.44
2023-04-23T09:05:41.908Z,100093.13
2023-04-23T09:08:46.648Z,100088.34
2023-04-23T09:11:52.803Z,100087.34
2023-04-23T09:14:57.632Z,100083.28
2023-04-23T09:18:01.867Z,100083.06
2023-04-23T09:21:05.892Z,100074.44
2023-04-23T09:24:12.926Z,100070.94
2023-04-23T09:27:24.164Z,100069.88
2023-04-23T09:30:27.802Z,100069.44
2023-04-23T09:33:32.942Z,100056.38
2023-04-23T09:36:37.750Z,100059.66
2023-04-23T09:39:41.661Z,100050.59
2023-04-23T09:42:54.665Z,100052.59
2023-04-23T09:45:58.186Z,100062.41
2023-04-23T09:49:07.896Z,100047.03
2023-04-23T09:52:13.783Z,100051.84
2023-04-23T09:55:28.433Z,100056.44
2023-04-23T09:58:31.582Z,100039.59
2023-04-23T10:01:34.604Z,100037.56
2023-04-23T10:04:38.782Z,100037.50
2023-04-23T10:07:43.095Z,100031.16
2023-04-23T10:10:59.974Z,100029.19
2023-04-23T10:14:06.929Z,100025.19
2023-04-23T10:17:10.959Z,100023.16
2023-04-23T10:20:16.350Z,100019.38
2023-04-23T10:23:22.448Z,100019.06
2023-04-23T10:26:26.357Z,100005.91
2023-04-23T10:29:34.195Z,100005.66
2023-04-23T10:32:38.991Z,100001.75
2023-04-23T10:35:42.081Z,99998.03
2023-04-23T10:38:56.601Z,99998.81
2023-04-23T10:42:02.398Z,99998.47
2023-04-23T10:45:23.280Z,99995.72
2023-04-23T10:48:28.846Z,99997.81
2023-04-23T10:54:44.484Z,99992.66
2023-04-23T10:58:01.206Z,99989.28
2023-04-23T11:01:06.091Z,99989.97
2023-04-23T11:04:31.115Z,99987.94
2023-04-23T11:07:34.750Z,99979.44
2023-04-23T11:10:54.934Z,99980.16
2023-04-23T11:13:59.617Z,99981.94
2023-04-23T11:17:06.868Z,99980.78
2023-04-23T11:20:16.558Z,99976.75
2023-04-23T11:23:37.598Z,99975.72
2023-04-23T11:26:44.043Z,99978.25
2023-04-23T11:29:48.070Z,99973.59
2023-04-23T11:32:54.707Z,99979.03
2023-04-23T11:35:58.151Z,99969.88
2023-04-23T11:39:04.133Z,99962.53
2023-04-23T11:42:14.430Z,99960.09
2023-04-23T11:45:19.035Z,99957.69
2023-04-23T11:48:22.242Z,99966.31
2023-04-23T11:51:27.169Z,99953.50
2023-04-23T11:54:30.409Z,99955.34
2023-04-23T11:57:37.797Z,99946.66
2023-04-23T12:00:41.613Z,99948.84
2023-04-23T12:03:49.576Z,99945.16
2023-04-23T12:06:54.890Z,99944.34
2023-04-23T12:10:00.776Z,99933.34
2023-04-23T12:13:04.087Z,99932.50
2023-04-23T12:16:08.585Z,99937.16
2023-04-23T12:19:15.772Z,99930.28
2023-04-23T12:22:28.488Z,99928.41
2023-04-23T12:25:32.053Z,99928.44
2023-04-23T12:28:35.531Z,99914.06
2023-04-23T12:31:39.309Z,99917.59
2023-04-23T12:34:55.956Z,99916.44
2023-04-23T12:37:58.949Z,99908.09
2023-04-23T12:41:02.172Z,99906.25
2023-04-23T12:44:05.594Z,99897.88
2023-04-23T12:47:11.571Z,99910.19
2023-04-23T12:50:14.583Z,99901.47
2023-04-23T12:53:18.782Z,99896.56
2023-04-23T12:56:21.678Z,99890.84
2023-04-23T12:59:24.903Z,99889.34
2023-04-23T13:02:28.355Z,99893.31
2023-04-23T13:05:31.702Z,99882.66
2023-04-23T13:08:34.648Z,99883.72
2023-04-23T13:11:39.420Z,99883.50
2023-04-23T13:14:42.818Z,99874.50
2023-04-23T13:17:46.168Z,99864.16
2023-04-23T13:20:50.052Z,99871.28
2023-04-23T13:23:53.425Z,99869.22
2023-04-23T13:26:57.219Z,99862.94
2023-04-23T13:30:00.764Z,99849.84
2023-04-23T13:33:04.589Z,99844.06
2023-04-23T13:36:08.714Z,99846.59
2023-04-23T13:39:14.320Z,99837.81
2023-04-23T13:42:17.759Z,99834.78
2023-04-23T13:45:21.010Z,99826.03
2023-04-23T13:48:28.697Z,99827.53
2023-04-23T13:51:35.191Z,99831.56
2023-04-23T13:54:39.981Z,99832.53
2023-04-23T13:57:42.931Z,99826.19
2023-04-23T14:00:46.506Z,99825.66
2023-04-23T14:03:49.723Z,99820.41
2023-04-23T14:06:53.056Z,99813.34
2023-04-23T14:09:56.272Z,99811.09
2023-04-23T14:12:59.383Z,99809.84
2023-04-23T14:16:03.679Z,99807.53
2023-04-23T14:19:06.927Z,99809.03
2023-04-23T14:22:10.265Z,99797.00
2023-04-23T14:25:23.892Z,99794.50
2023-04-23T14:28:40.961Z,99790.75
2023-04-23T14:31:43.948Z,99790.81
2023-04-23T14:34:47.149Z,99792.81
2023-04-23T14:37:50.039Z,99782.25
2023-04-23T14:40:53.854Z,99780.75
2023-04-23T14:43:57.136Z,99774.66
2023-04-23T14:47:00.525Z,99775.91
2023-04-23T14:50:04.232Z,99785.22
2023-04-23T14:53:10.236Z,99779.44
2023-04-23T14:56:13.329Z,99777.91
2023-04-23T14:59:16.412Z,99773.06
2023-04-23T15:02:19.579Z,99775.06
2023-04-23T15:05:22.541Z,99773.78
2023-04-23T15:08:25.994Z,99770.44
2023-04-23T15:11:29.535Z,99766.91
2023-04-23T15:14:37.491Z,99764.66
2023-04-23T15:17:40.840Z,99757.59
2023-04-23T15:20:44.618Z,99767.19
2023-04-23T15:23:48.007Z,99759.84
2023-04-23T15:26:53.518Z,99750.03
2023-04-23T15:29:57.113Z,99753.75
2023-04-23T15:33:00.321Z,99745.91
2023-04-23T15:36:04.255Z,99754.59
2023-04-23T15:39:08.761Z,99748.22
2023-04-23T15:42:14.334Z,99750.22
2023-04-23T15:45:17.577Z,99750.72
2023-04-23T15:48:21.553Z,99743.16
2023-04-23T15:51:24.528Z,99745.13
2023-04-23T15:54:27.431Z,99740.31
2023-04-23T15:57:31.030Z,99731.25
2023-04-23T16:00:34.434Z,99736.94
2023-04-23T16:03:38.054Z,99724.25
2023-04-23T16:06:41.321Z,99723.69
2023-04-23T16:09:44.522Z,99719.84
2023-04-23T16:12:48.695Z,99722.34
2023-04-23T16:15:51.871Z,99716.88
2023-04-23T16:18:56.361Z,99717.22
2023-04-23T16:22:00.903Z,99716.75
2023-04-23T16:25:05.112Z,99708.13
2023-04-23T16:28:08.648Z,99714.13
2023-04-23T16:31:12.716Z,99709.19
2023-04-23T16:34:16.074Z,99706.94
2023-04-23T16:37:19.862Z,99710.22
2023-04-23T16:40:23.056Z,99703.53
2023-04-23T16:43:26.351Z,99701.97
2023-04-23T16:46:31.504Z,99705.38
2023-04-23T16:49:35.499Z,99707.00
2023-04-23T16:52:38.812Z,99705.63
2023-04-23T16:55:42.079Z,99699.63
2023-04-23T16:58:45.376Z,99698.50
2023-04-23T17:01:48.430Z,99701.38
2023-04-23T17:04:51.957Z,99702.78
2023-04-23T17:07:55.474Z,99700.22
2023-04-23T17:10:58.458Z,99699.88
2023-04-23T17:14:01.724Z,99696.31
2023-04-23T17:17:04.978Z,99702.00
2023-04-23T17:20:09.008Z,99704.91
2023-04-23T17:23:12.680Z,99694.94
2023-04-23T17:26:15.923Z,99699.06
2023-04-23T17:29:19.634Z,99704.38
2023-04-23T17:32:23.767Z,99699.41
2023-04-23T17:35:27.014Z,99695.28
2023-04-23T17:38:30.499Z,99698.47
2023-04-23T17:41:34.067Z,99693.34
2023-04-23T17:44:41.112Z,99698.47
2023-04-23T17:47:44.616Z,99705.66
2023-04-23T17:50:47.829Z,99700.94
2023-04-23T17:53:53.696Z,99709.28
2023-04-23T17:56:56.592Z,99706.50
2023-04-23T18:00:02.373Z,99707.34
2023-04-23T18:03:17.790Z,99718.63
2023-04-23T18:06:22.164Z,99716.63
2023-04-23T18:09:25.581Z,99718.72
2023-04-23T18:12:30.261Z,99721.13
2023-04-23T18:15:33.656Z,99716.88
2023-04-23T18:18:37.019Z,99725.03
2023-04-23T18:21:40.850Z,99727.78
2023-04-23T18:24:44.818Z,99727.38
2023-04-23T18:27:48.973Z,99728.94
2023-04-23T18:30:52.556Z,99726.06
2023-04-23T18:34:02.386Z,99726.91
2023-04-23T18:37:11.277Z,99735.53
2023-04-23T18:40:14.978Z,99736.47
2023-04-23T18:43:18.899Z,99740.72
2023-04-23T18:46:23.255Z,99738.13
2023-04-23T18:49:29.745Z,99742.50
2023-04-23T18:52:33.254Z,99746.19
2023-04-23T18:55:37.156Z,99745.34
2023-04-23T18:58:40.962Z,99734.44
2023-04-23T19:01:46.327Z,99743.84
2023-04-23T19:04:49.606Z,99747.13
2023-04-23T19:07:54.671Z,99739.69
2023-04-23T19:10:57.907Z,99744.09
2023-04-23T19:14:01.935Z,99748.28
2023-04-23T19:17:05.464Z,99736.59
2023-04-23T19:20:11.423Z,99741.94
2023-04-23T19:23:14.835Z,99729.28
2023-04-23T19:26:19.094Z,99740.78
2023-04-23T19:29:23.352Z,99735.75
2023-04-23T19:32:30.134Z,99744.03
2023-04-23T19:35:33.929Z,99738.34
2023-04-23T19:38:37.802Z,99732.97
2023-04-23T19:41:41.440Z,99747.47
2023-04-23T19:44:44.706Z,99746.34
2023-04-23T19:47:48.169Z,99739.47
2023-04-23T19:50:51.320Z,99744.00
2023-04-23T19:53:56.042Z,99738.75
2023-04-23T19:56:59.464Z,99737.97
2023-04-23T20:00:05.106Z,99739.50
2023-04-23T20:03:10.095Z,99734.75
2023-04-23T20:06:16.500Z,99733.44
2023-04-23T20:09:21.189Z,99729.31
2023-04-23T20:12:25.444Z,99739.13
2023-04-23T20:15:29.206Z,99740.78
2023-04-23T20:18:35.592Z,99737.53
2023-04-23T20:21:39.810Z,99736.44
2023-04-23T20:24:46.408Z,99733.16
2023-04-23T20:27:51.119Z,99728.31
2023-04-23T20:30:54.334Z,99728.03
2023-04-23T20:33:58.043Z,99727.16
2023-04-23T20:37:01.327Z,99729.84
2023-04-23T20:40:05.690Z,99728.47
2023-04-23T20:43:10.042Z,99722.84
2023-04-23T20:46:13.200Z,99712.84
2023-04-23T20:49:16.905Z,99723.44
2023-04-23T20:52:20.118Z,99720.22
2023-04-23T20:55:23.336Z,99702.44
2023-04-23T20:58:26.734Z,99707.53
2023-04-23T21:01:30.645Z,99703.91
2023-04-23T21:04:33.799Z,99702.72
2023-04-23T21:07:50.926Z,99690.28
2023-04-23T21:10:54.099Z,99696.22
2023-04-23T21:14:00.201Z,99696.38
2023-04-23T21:17:04.177Z,99687.84
2023-04-23T21:20:08.717Z,99677.94
2023-04-23T21:23:12.627Z,99684.94
2023-04-23T21:26:15.801Z,99676.28
2023-04-23T21:29:18.886Z,99683.41
2023-04-23T21:32:22.152Z,99665.00
2023-04-23T21:35:25.167Z,99671.72
2023-04-23T21:38:28.537Z,99681.75
2023-04-23T21:41:34.284Z,99668.38
2023-04-23T21:44:37.551Z,99660.19
2023-04-23T21:47:41.718Z,99654.75
2023-04-23T21:50:46.151Z,99656.91
2023-04-23T21:53:49.550Z,99660.53
2023-04-23T21:56:52.485Z,99659.91
2023-04-23T21:59:55.674Z,99665.56
2023-04-23T22:02:58.927Z,99660.81
2023-04-23T22:06:03.350Z,99662.34
2023-04-23T22:09:06.434Z,99670.50
2023-04-23T22:12:10.024Z,99676.88
2023-04-23T22:15:15.433Z,99677.03
2023-04-23T22:18:18.545Z,99671.75
2023-04-23T22:21:21.853Z,99669.19
2023-04-23T22:24:24.725Z,99666.91
2023-04-23T22:27:28.481Z,99666.00
2023-04-23T22:30:31.772Z,99667.38
2023-04-23T22:33:35.217Z,99659.63
2023-04-23T22:36:40.720Z,99659.31
2023-04-23T22:39:43.970Z,99661.00
2023-04-23T22:42:47.689Z,99654.91
2023-04-23T22:45:51.074Z,99652.47
2023-04-23T22:48:54.905Z,99642.13
2023-04-23T22:51:58.085Z,99654.59
2023-04-23T22:55:01.426Z,99655.06
2023-04-23T22:58:04.952Z,99625.72
2023-04-23T23:01:08.359Z,99631.97
2023-04-23T23:04:13.195Z,99628.03
2023-04-23T23:07:16.317Z,99616.97
2023-04-23T23:10:22.746Z,99613.00
2023-04-23T23:13:26.157Z,99607.41
2023-04-23T23:16:30.664Z,99610.41
2023-04-23T23:19:33.856Z,99603.13
2023-04-23T23:22:37.675Z,99598.72
2023-04-23T23:25:41.242Z,99600.34
2023-04-23T23:28:45.465Z,99601.53
2023-04-23T23:31:48.551Z,99602.63
2023-04-23T23:34:52.007Z,99597.59
2023-04-23T23:37:55.137Z,99594.81
2023-04-23T23:40:58.174Z,99592.69
2023-04-23T23:44:01.205Z,99579.06
2023-04-23T23:47:04.313Z,99578.94
2023-04-23T23:50:08.306Z,99567.84
2023-04-23T23:53:11.676Z,99570.75
2023-04-23T23:56:15.287Z,99567.56
2023-04-23T23:59:18.649Z,99566.63
